Time;durP1;ratioP1;P1;durP2;ratioP2;P2;SDS_P1;SDS_P2;PMS_P1;PMS_P2;Temp;Humidity;BMP_temperature;BMP_pressure;BME280_temperature;BME280_humidity;BME280_pressure;Samples;Min_cycle;Max_cycle;Signal;HPM_P1;HPM_P2
2022/07/13 00:05:18;;;;;;;13.88;6.00;;;31.40;25.70;;;;;;21248920;27;20074;-57
2022/07/13 00:15:21;;;;;;;7.78;6.20;;;31.40;25.80;;;;;;21247468;27;20130;-60
2022/07/13 00:25:22;;;;;;;8.57;6.10;;;31.30;26.10;;;;;;21247409;28;20047;-59
2022/07/13 00:35:24;;;;;;;8.27;5.93;;;31.20;26.40;;;;;;21248278;28;20184;-58
2022/07/13 00:45:25;;;;;;;7.88;5.90;;;31.20;26.30;;;;;;21246553;28;20082;-59
2022/07/13 00:55:27;;;;;;;11.80;5.35;;;31.20;26.70;;;;;;21246699;28;20087;-59
2022/07/13 01:05:30;;;;;;;8.70;6.20;;;31.10;26.70;;;;;;21250480;27;20442;-60
2022/07/13 01:15:32;;;;;;;7.22;5.47;;;30.90;27.20;;;;;;21261367;27;20126;-58
2022/07/13 01:25:33;;;;;;;8.77;5.53;;;30.80;27.40;;;;;;21261529;27;20058;-60
2022/07/13 01:35:35;;;;;;;7.50;4.80;;;30.80;27.70;;;;;;21260451;27;20043;-58
2022/07/13 01:45:36;;;;;;;9.70;4.95;;;30.60;27.00;;;;;;21260292;27;20103;-58
2022/07/13 01:55:37;;;;;;;9.75;4.53;;;30.60;26.80;;;;;;21260012;27;20138;-60
2022/07/13 02:05:39;;;;;;;8.15;4.60;;;30.60;26.40;;;;;;21258555;27;20051;-57
2022/07/13 02:15:43;;;;;;;11.65;6.88;;;30.50;26.10;;;;;;21256610;27;20047;-57
2022/07/13 02:25:47;;;;;;;8.35;5.57;;;30.30;28.00;;;;;;21256059;27;20054;-58
2022/07/13 02:35:55;;;;;;;8.70;4.95;;;30.00;28.60;;;;;;21254801;27;20134;-58
2022/07/13 02:46:02;;;;;;;8.77;6.22;;;29.70;29.60;;;;;;21236944;27;20093;-58
2022/07/13 02:56:07;;;;;;;7.85;5.72;;;29.40;30.80;;;;;;21254244;27;20078;-56
2022/07/13 03:06:08;;;;;;;9.65;5.90;;;29.10;31.00;;;;;;21252393;27;20062;-57
2022/07/13 03:16:11;;;;;;;10.18;6.25;;;28.90;31.20;;;;;;21252463;27;20138;-58
2022/07/13 03:26:12;;;;;;;9.00;5.55;;;28.90;31.00;;;;;;21250459;27;20040;-58
2022/07/13 03:36:15;;;;;;;6.40;5.70;;;28.90;30.90;;;;;;21250002;27;20040;-59
2022/07/13 03:46:17;;;;;;;8.68;5.30;;;28.90;31.20;;;;;;21249523;27;20088;-56
2022/07/13 03:56:19;;;;;;;7.07;5.28;;;28.90;31.40;;;;;;21250740;27;20058;-58
2022/07/13 04:06:21;;;;;;;9.55;5.40;;;28.90;31.40;;;;;;21248653;27;20050;-57
2022/07/13 04:16:22;;;;;;;7.18;5.85;;;29.00;31.10;;;;;;21247888;27;20487;-58
2022/07/13 04:26:25;;;;;;;10.35;5.88;;;28.90;31.80;;;;;;21247441;28;20061;-58
2022/07/13 04:36:26;;;;;;;8.18;5.55;;;28.60;33.20;;;;;;21246705;28;20059;-57
2022/07/13 04:46:28;;;;;;;9.40;6.30;;;28.30;33.60;;;;;;21262218;27;20471;-59
2022/07/13 04:56:32;;;;;;;8.13;6.20;;;28.20;33.80;;;;;;21262867;27;20100;-58
2022/07/13 05:06:34;;;;;;;7.75;6.10;;;28.10;33.70;;;;;;21261642;27;20414;-57
2022/07/13 05:16:36;;;;;;;11.90;6.43;;;28.10;33.80;;;;;;21261013;27;20062;-57
2022/07/13 05:26:38;;;;;;;12.15;6.68;;;28.10;34.20;;;;;;21261494;27;20436;-57
2022/07/13 05:36:39;;;;;;;15.05;5.40;;;28.00;34.40;;;;;;21260110;27;20050;-58
2022/07/13 05:46:42;;;;;;;15.45;6.13;;;27.90;34.40;;;;;;21260157;27;20053;-58
2022/07/13 05:56:44;;;;;;;10.18;5.47;;;27.90;34.50;;;;;;21239506;27;20055;-58
2022/07/13 06:06:47;;;;;;;12.57;5.70;;;27.80;34.50;;;;;;21257816;27;20120;-58
2022/07/13 06:17:06;;;;;;;7.72;5.35;;;27.80;34.70;;;;;;21256727;27;20043;-58
2022/07/13 06:27:27;;;;;;;13.02;6.03;;;27.80;34.80;;;;;;21256778;27;20483;-58
2022/07/13 06:37:48;;;;;;;;;;;27.90;34.60;;;;;;21255151;27;20058;-58
2022/07/13 06:48:05;;;;;;;4.43;3.80;;;28.00;34.40;;;;;;21254158;27;20005;-58
2022/07/13 06:58:10;;;;;;;4.82;3.55;;;28.20;32.30;;;;;;21253502;27;20055;-57
2022/07/13 07:08:16;;;;;;;8.15;3.95;;;28.60;31.60;;;;;;21243685;27;20054;-58
2022/07/13 07:18:21;;;;;;;7.75;3.50;;;29.20;30.60;;;;;;21244147;27;20054;-56
2022/07/13 07:28:25;;;;;;;7.40;3.55;;;29.70;31.90;;;;;;21250676;27;20475;-57
2022/07/13 07:38:30;;;;;;;7.05;3.67;;;30.20;31.20;;;;;;21250408;27;20047;-58
2022/07/13 07:48:34;;;;;;;9.60;3.67;;;30.60;30.60;;;;;;21249590;27;20054;-59
2022/07/13 07:58:39;;;;;;;11.10;3.28;;;30.80;29.70;;;;;;21248384;27;20082;-58
2022/07/13 08:08:42;;;;;;;7.25;2.90;;;31.00;29.50;;;;;;21248459;27;20122;-59
2022/07/13 08:18:45;;;;;;;8.25;2.80;;;31.20;29.30;;;;;;21248425;27;20059;-59
2022/07/13 08:28:48;;;;;;;7.30;2.67;;;31.60;28.40;;;;;;21248775;28;20100;-59
2022/07/13 08:38:50;;;;;;;4.47;2.55;;;32.10;27.30;;;;;;21247703;28;20055;-60
2022/07/13 08:48:54;;;;;;;4.55;2.70;;;32.20;27.00;;;;;;21247137;28;20043;-59
2022/07/13 08:58:56;;;;;;;6.47;2.90;;;32.30;27.30;;;;;;21246418;28;20101;-61
2022/07/13 09:09:01;;;;;;;5.70;3.00;;;32.60;27.90;;;;;;21303602;27;20058;-61
2022/07/13 09:19:03;;;;;;;6.68;3.10;;;32.70;26.30;;;;;;21311823;27;20099;-61
2022/07/13 09:29:05;;;;;;;7.28;3.30;;;32.70;26.40;;;;;;21338714;27;20043;-60
2022/07/13 09:39:10;;;;;;;13.25;4.05;;;33.00;26.40;;;;;;21346702;27;20051;-59
2022/07/13 09:49:18;;;;;;;8.98;3.40;;;33.10;26.20;;;;;;21344698;27;20046;-60
2022/07/13 09:59:20;;;;;;;9.18;3.30;;;33.20;25.80;;;;;;21344352;27;20134;-56
2022/07/13 10:09:25;;;;;;;6.30;2.80;;;33.50;25.70;;;;;;21327131;27;20058;-58
2022/07/13 10:19:29;;;;;;;7.32;3.22;;;33.70;25.30;;;;;;21342803;27;20187;-60
2022/07/13 10:29:31;;;;;;;9.00;3.00;;;33.90;24.70;;;;;;21340230;27;20043;-58
2022/07/13 10:39:34;;;;;;;8.45;2.70;;;34.00;24.90;;;;;;21340134;27;20525;-55
2022/07/13 10:49:41;;;;;;;4.88;3.30;;;34.30;24.60;;;;;;21340201;27;20065;-57
2022/07/13 10:59:48;;;;;;;6.63;4.13;;;34.40;24.10;;;;;;21337065;27;20506;-58
2022/07/13 11:10:22;;;;;;;9.13;3.13;;;34.60;23.90;;;;;;21337998;27;20118;-60
2022/07/13 11:20:36;;;;;;;9.68;4.13;;;34.60;23.60;;;;;;20907386;28;20135;-59
2022/07/13 11:30:43;;;;;;;9.43;4.10;;;34.70;23.60;;;;;;20906442;28;20382;-59
2022/07/13 11:40:45;;;;;;;8.82;4.07;;;35.00;23.20;;;;;;20904493;28;20064;-58
2022/07/13 11:50:48;;;;;;;11.05;4.70;;;35.50;22.80;;;;;;21060736;27;20479;-60
2022/07/13 12:00:50;;;;;;;9.73;4.70;;;35.90;22.60;;;;;;21316067;27;20069;-60
2022/07/13 12:10:51;;;;;;;11.10;5.70;;;36.20;22.40;;;;;;21333592;27;20051;-58
2022/07/13 12:20:53;;;;;;;13.18;6.13;;;36.40;21.80;;;;;;21333516;27;20103;-58
2022/07/13 12:31:01;;;;;;;7.25;6.18;;;36.50;21.80;;;;;;21334217;27;20111;-61
2022/07/13 12:41:04;;;;;;;10.32;6.35;;;36.60;21.10;;;;;;21332608;27;20103;-58
2022/07/13 12:51:06;;;;;;;9.02;7.03;;;36.90;21.20;;;;;;21333705;27;20042;-60
2022/07/13 13:01:08;;;;;;;9.85;6.97;;;37.20;20.70;;;;;;21337415;27;20394;-60
2022/07/13 13:11:10;;;;;;;13.80;7.32;;;37.40;20.80;;;;;;21348004;27;20058;-60
2022/07/13 13:21:12;;;;;;;16.23;8.52;;;37.40;20.30;;;;;;21347279;27;20050;-58
2022/07/13 13:31:14;;;;;;;12.55;8.13;;;37.40;20.40;;;;;;21346634;27;20164;-62
2022/07/13 13:41:16;;;;;;;9.95;7.60;;;37.60;19.70;;;;;;21346422;27;20046;-58
2022/07/13 13:51:18;;;;;;;10.15;8.02;;;37.50;20.10;;;;;;21346117;27;20423;-59
2022/07/13 14:01:20;;;;;;;12.27;8.07;;;37.70;19.50;;;;;;21344383;27;20447;-59
2022/07/13 14:11:22;;;;;;;8.85;6.43;;;38.20;19.20;;;;;;21341937;27;20046;-59
2022/07/13 14:21:24;;;;;;;7.28;6.05;;;38.60;18.60;;;;;;21342709;27;20050;-60
2022/07/13 14:31:26;;;;;;;8.25;5.85;;;38.60;18.70;;;;;;21342048;27;20478;-58
2022/07/13 14:41:28;;;;;;;59.75;12.23;;;38.80;18.50;;;;;;21340152;27;20042;-60
2022/07/13 14:51:30;;;;;;;7.85;6.10;;;39.00;18.40;;;;;;21341339;27;20049;-61
2022/07/13 15:01:32;;;;;;;5.90;5.30;;;38.90;18.30;;;;;;21339684;27;20065;-60
2022/07/13 15:11:34;;;;;;;7.97;6.13;;;38.80;18.00;;;;;;21338458;27;20472;-59
2022/07/13 15:21:37;;;;;;;7.38;6.68;;;39.00;17.80;;;;;;21337541;27;20050;-59
2022/07/13 15:31:39;;;;;;;7.18;6.50;;;38.80;18.00;;;;;;21336451;27;20534;-61
2022/07/13 15:41:41;;;;;;;11.18;8.48;;;38.70;18.10;;;;;;21336443;27;20069;-60
2022/07/13 15:51:43;;;;;;;8.93;7.15;;;38.60;17.90;;;;;;21336426;27;20050;-59
2022/07/13 16:01:44;;;;;;;12.35;7.70;;;38.60;17.90;;;;;;21334490;27;20065;-59
2022/07/13 16:11:46;;;;;;;11.43;7.97;;;38.60;18.20;;;;;;21333789;27;20047;-59
2022/07/13 16:21:49;;;;;;;9.93;7.78;;;38.40;18.40;;;;;;21334048;27;20513;-60
2022/07/13 16:31:51;;;;;;;8.63;7.88;;;38.50;17.90;;;;;;21332896;27;20050;-59
2022/07/13 16:41:53;;;;;;;9.95;7.15;;;38.60;18.00;;;;;;21347997;27;20092;-60
2022/07/13 16:51:54;;;;;;;8.57;7.63;;;38.80;17.90;;;;;;21349240;27;20043;-60
2022/07/13 17:01:56;;;;;;;10.80;7.38;;;38.90;18.20;;;;;;21348667;27;20074;-63
2022/07/13 17:11:59;;;;;;;10.65;8.30;;;38.70;17.90;;;;;;21347133;27;20100;-61
2022/07/13 17:22:00;;;;;;;9.23;7.60;;;38.50;18.20;;;;;;21346559;27;20046;-59
2022/07/13 17:32:03;;;;;;;8.95;7.78;;;38.50;18.00;;;;;;21346177;27;20050;-59
2022/07/13 17:42:05;;;;;;;8.75;7.80;;;38.50;18.10;;;;;;21347038;27;20065;-59
2022/07/13 17:52:08;;;;;;;10.88;8.30;;;38.40;18.00;;;;;;21344718;27;20133;-60
2022/07/13 18:02:10;;;;;;;9.30;8.30;;;38.30;18.60;;;;;;21343360;27;20050;-59
2022/07/13 18:12:11;;;;;;;8.43;7.60;;;38.20;18.30;;;;;;21342783;27;20043;-62
2022/07/13 18:22:13;;;;;;;9.15;7.85;;;38.10;18.40;;;;;;21343579;27;20527;-60
2022/07/13 18:32:15;;;;;;;9.70;8.43;;;38.10;18.80;;;;;;21322672;27;20087;-60
2022/07/13 18:42:17;;;;;;;9.55;8.05;;;38.00;18.50;;;;;;21342258;27;20054;-60
2022/07/13 18:52:19;;;;;;;9.35;8.40;;;37.80;18.40;;;;;;21340865;27;20391;-59
2022/07/13 19:02:20;;;;;;;12.68;11.38;;;37.70;19.30;;;;;;21338711;27;20428;-59
2022/07/13 19:12:22;;;;;;;10.82;9.82;;;37.50;19.60;;;;;;21338110;27;20055;-61
2022/07/13 19:22:23;;;;;;;10.90;9.63;;;37.20;20.00;;;;;;21337153;27;20133;-59
2022/07/13 19:32:25;;;;;;;11.73;10.07;;;37.00;20.10;;;;;;21335939;27;20046;-59
2022/07/13 19:42:27;;;;;;;11.70;9.25;;;36.80;20.70;;;;;;21336291;27;20052;-60
2022/07/13 19:52:28;;;;;;;13.20;11.43;;;36.50;20.90;;;;;;21335117;27;20045;-59
2022/07/13 20:02:29;;;;;;;14.57;11.73;;;36.30;21.30;;;;;;21334390;27;20547;-60
2022/07/13 20:12:31;;;;;;;16.55;11.45;;;36.10;21.10;;;;;;21332854;27;20494;-59
2022/07/13 20:22:33;;;;;;;14.90;11.30;;;35.90;21.40;;;;;;21333403;27;20042;-60
2022/07/13 20:32:36;;;;;;;13.57;11.43;;;35.60;22.10;;;;;;21334271;27;20047;-60
2022/07/13 20:42:38;;;;;;;16.73;12.25;;;35.50;22.00;;;;;;21332896;27;20554;-59
2022/07/13 20:52:40;;;;;;;17.88;13.45;;;35.30;22.70;;;;;;21333553;27;20055;-61
2022/07/13 21:02:42;;;;;;;15.20;12.93;;;35.10;22.70;;;;;;21332645;27;20487;-60
2022/07/13 21:12:44;;;;;;;21.13;14.05;;;35.00;23.30;;;;;;21331538;27;20047;-60
2022/07/13 21:22:49;;;;;;;21.20;12.75;;;34.60;24.50;;;;;;21337140;27;20558;-60
2022/07/13 21:32:50;;;;;;;21.70;18.73;;;34.60;23.50;;;;;;21347169;27;20126;-62
2022/07/13 21:42:52;;;;;;;16.77;12.43;;;34.30;25.20;;;;;;21345563;27;20509;-60
2022/07/13 21:52:53;;;;;;;17.13;14.00;;;34.10;24.80;;;;;;21344950;27;20483;-61
2022/07/13 22:02:55;;;;;;;16.15;13.60;;;33.90;25.10;;;;;;21345121;27;20247;-60
2022/07/13 22:13:34;;;;;;;20.85;14.35;;;33.40;25.40;;;;;;21343370;27;20047;-60
2022/07/13 22:24:13;;;;;;;15.77;13.73;;;33.10;25.30;;;;;;21343033;27;20102;-60
2022/07/13 22:34:52;;;;;;;15.68;13.85;;;32.80;25.50;;;;;;21342584;27;20047;-60
2022/07/13 22:45:31;;;;;;;16.63;14.93;;;32.60;25.30;;;;;;21341427;27;20054;-61
2022/07/13 22:56:10;;;;;;;18.38;15.05;;;32.40;25.10;;;;;;21340351;27;20133;-60
2022/07/13 23:06:49;;;;;;;17.47;15.67;;;32.30;24.80;;;;;;21339235;27;20491;-61
2022/07/13 23:17:28;;;;;;;16.75;15.00;;;32.10;25.00;;;;;;21319610;27;20054;-61
2022/07/13 23:28:06;;;;;;;18.50;16.47;;;32.10;25.20;;;;;;21338369;27;20047;-61
2022/07/13 23:38:08;;;;;;;17.15;15.48;;;32.10;25.70;;;;;;21337430;27;20086;-61
2022/07/13 23:48:10;;;;;;;16.25;14.70;;;31.80;25.60;;;;;;21336119;27;20078;-59
2022/07/13 23:58:12;;;;;;;16.55;14.13;;;31.70;25.80;;;;;;21336470;27;20050;-61
